Queen Of Cumberland — VG2029 — position and weather

sailwx.info

Track history (hours):
 
Tides and Currents Weather Stations Pressure Air Temp Water Temp Dewpoint Dewpoint Depression Visibility Wind Speed Wind Dir Waves Ship Positions

Queen Of Cumberland

Last reported at 2017-Dec-15 06:00 UTC. Time now 2017-Dec-15 06:14 UTC.
Position N 48°45' W 123°22'.

Length 96 m; draft 3.7 m.

Type: Passenger vessel. MMSI: 316001252.

Date/timePositionNaut miles runAvg speedWind from/ knotsBaromVisibWave heightAir tempDewpointWater temp
2017-Dec-15 06:00N 48°45' W 123°22'3 6.8
2017-Dec-15 05:30N 48°48' W 123°20'4 8.6
2017-Dec-15 05:00N 48°52' W 123°19'1 1.8
2017-Dec-15 04:21N 48°51' W 123°19'2 4.8
2017-Dec-15 04:00N 48°50' W 123°20'9 6.1
2017-Dec-15 02:30N 48°41' W 123°25'8 5.1
2017-Dec-15 01:01N 48°49' W 123°21'611.6
2017-Dec-15 00:30N 48°43' W 123°24'2 0.4
2017-Dec-14 18:30N 48°45' W 123°22'4 8.6
2017-Dec-14 18:01N 48°41' W 123°25'4 8.9
2017-Dec-14 17:31N 48°45' W 123°22'3 6.4
2017-Dec-14 17:01N 48°48' W 123°19'611.4
2017-Dec-14 16:31N 48°43' W 123°24'2 3.9
2017-Dec-14 16:00N 48°41' W 123°25'10 9.9
2017-Dec-14 15:00N 48°51' W 123°20'2 3.8
2017-Dec-14 14:30N 48°53' W 123°19'2 3.4
2017-Dec-14 14:00N 48°52' W 123°21'611.5
2017-Dec-14 13:30N 48°46' W 123°22'5 9.8
2017-Dec-14 13:00N 48°41' W 123°25'0 0.0
2017-Dec-14 12:30N 48°41' W 123°25'0 0.0
2017-Dec-14 12:00N 48°41' W 123°25'0 0.0
2017-Dec-14 11:30N 48°41' W 123°25'0 0.0
2017-Dec-14 11:00N 48°41' W 123°25'0 0.0
2017-Dec-14 10:30N 48°41' W 123°25'0 0.0
2017-Dec-14 10:00N 48°41' W 123°25'0 0.0
2017-Dec-14 09:30N 48°41' W 123°25'0 0.0
2017-Dec-14 09:00N 48°41' W 123°25'0 0.0
2017-Dec-14 08:30N 48°41' W 123°25'0 0.0
2017-Dec-14 08:00N 48°41' W 123°25'0 0.0
2017-Dec-14 07:30N 48°41' W 123°25'0 0.0
2017-Dec-14 07:00N 48°41' W 123°25'0 0.0
2017-Dec-14 06:30N 48°41' W 123°25'2 3.6
2017-Dec-14 06:00N 48°43' W 123°24'611.8
2017-Dec-14 05:30N 48°48' W 123°19'3 6.4
2017-Dec-14 05:00N 48°51' W 123°21'2 4.5
2017-Dec-14 04:30N 48°53' W 123°19'2 3.8
2017-Dec-14 04:01N 48°51' W 123°21'3 6.9
2017-Dec-14 03:30N 48°48' W 123°19'510.5
2017-Dec-14 03:00N 48°44' W 123°24'2 4.8
2017-Dec-14 02:31N 48°41' W 123°24'612.1
2017-Dec-14 02:01N 48°47' W 123°21'4 7.5
2017-Dec-14 01:30N 48°51' W 123°20'5 9.2
2017-Dec-14 01:00N 48°46' W 123°21'510.8
2017-Dec-14 00:31N 48°41' W 123°25'1 1.4
2017-Dec-14 00:00N 48°42' W 123°24'611.5
2017-Dec-13 23:30N 48°47' W 123°20'0 0.3
2017-Dec-13 23:00N 48°47' W 123°20'511.1
2017-Dec-13 22:30N 48°42' W 123°24'1 2.2
2017-Dec-13 22:00N 48°41' W 123°25'0 0.0
2017-Dec-13 21:30N 48°41' W 123°25'0 0.0
2017-Dec-13 21:00N 48°41' W 123°25'0 0.0
2017-Dec-13 20:30N 48°41' W 123°25'510.8
2017-Dec-13 20:00N 48°46' W 123°21'2 4.3
2017-Dec-13 19:31N 48°48' W 123°19'3 5.4
2017-Dec-13 19:00N 48°51' W 123°20'510.8
2017-Dec-13 18:30N 48°46' W 123°22'5 9.0
2017-Dec-13 18:00N 48°41' W 123°25'5 9.5
2017-Dec-13 17:30N 48°46' W 123°21'3 5.8
2017-Dec-13 17:01N 48°48' W 123°19'611.1
2017-Dec-13 16:30N 48°43' W 123°24'2 4.3
2017-Dec-13 16:00N 48°41' W 123°25'611.3
2017-Dec-13 15:30N 48°47' W 123°21'4 8.6
2017-Dec-13 15:00N 48°51' W 123°20'2 3.2
2017-Dec-13 14:30N 48°52' W 123°18'1 2.5
2017-Dec-13 14:00N 48°52' W 123°20'611.1
2017-Dec-13 13:30N 48°46' W 123°22'510.3
2017-Dec-13 13:00N 48°41' W 123°25'0 0.0
2017-Dec-13 12:30N 48°41' W 123°25'0 0.0
2017-Dec-13 12:00N 48°41' W 123°25'0 0.0
2017-Dec-13 11:30N 48°41' W 123°25'0 0.0
2017-Dec-13 11:00N 48°41' W 123°25'0 0.0
2017-Dec-13 10:30N 48°41' W 123°25'0 0.0
2017-Dec-13 10:00N 48°41' W 123°25'0 0.0
2017-Dec-13 09:30N 48°41' W 123°25'0 0.0
2017-Dec-13 09:00N 48°41' W 123°25'0 0.0
2017-Dec-13 08:30N 48°41' W 123°25'0 0.0
2017-Dec-13 08:00N 48°41' W 123°25'0 0.0
2017-Dec-13 07:30N 48°41' W 123°25'0 0.0
2017-Dec-13 07:00N 48°41' W 123°25'0 0.0
2017-Dec-13 06:30N 48°41' W 123°25'2 4.0
2017-Dec-13 06:00N 48°43' W 123°24'611.3
2017-Dec-13 05:30N 48°48' W 123°19'4 7.6
2017-Dec-13 05:00N 48°52' W 123°21'2 3.0
2017-Dec-13 04:30N 48°53' W 123°19'3 5.2
2017-Dec-13 04:01N 48°50' W 123°20'2 4.9
2017-Dec-13 03:30N 48°48' W 123°19'611.9
2017-Dec-13 03:00N 48°43' W 123°24'2 3.5
2017-Dec-13 02:30N 48°41' W 123°25'611.1
2017-Dec-13 02:00N 48°47' W 123°21'4 8.6
2017-Dec-13 01:30N 48°51' W 123°20'3 7.1
2017-Dec-13 01:00N 48°47' W 123°21'510.4
2017-Dec-13 00:30N 48°43' W 123°24'1 2.5
2017-Dec-13 00:00N 48°41' W 123°25'611.4
2017-Dec-12 23:30N 48°46' W 123°21'1 1.8
2017-Dec-12 23:00N 48°47' W 123°20'611.4
2017-Dec-12 22:31N 48°42' W 123°24'0 0.2
2017-Dec-12 20:26N 48°42' W 123°24'613.0
2017-Dec-12 19:58N 48°47' W 123°20'2 3.9
2017-Dec-12 19:30N 48°49' W 123°20'2 3.3
2017-Dec-12 19:00N 48°51' W 123°20'510.8
2017-Dec-12 18:30N 48°46' W 123°22'4 5.0
2017-Dec-12 17:44N 48°42' W 123°24'312.6
2017-Dec-12 17:30N 48°45' W 123°23'4 8.3
2017-Dec-12 17:00N 48°48' W 123°19'510.1
2017-Dec-12 16:29N 48°44' W 123°24'2 3.1
2017-Dec-12 15:54N 48°42' W 123°24'512.1
2017-Dec-12 15:29N 48°47' W 123°22'4 8.7
2017-Dec-12 15:00N 48°51' W 123°20'2 3.8
2017-Dec-12 14:30N 48°52' W 123°18'2 3.2
2017-Dec-12 14:00N 48°52' W 123°21'611.5
2017-Dec-12 13:29N 48°46' W 123°22'4 0.5
2017-Dec-12 06:05N 48°42' W 123°24'112.9
2017-Dec-12 06:00N 48°43' W 123°24'612.0
2017-Dec-12 05:30N 48°48' W 123°19'3 5.9
2017-Dec-12 05:00N 48°51' W 123°21'3 5.0
2017-Dec-12 04:30N 48°53' W 123°19'2 4.3
2017-Dec-12 04:00N 48°51' W 123°20'3 5.7
2017-Dec-12 03:30N 48°48' W 123°19'510.9
2017-Dec-12 03:00N 48°43' W 123°24'2 2.8
2017-Dec-12 02:28N 48°42' W 123°24'511.5
2017-Dec-12 02:00N 48°47' W 123°21'4 8.2
2017-Dec-12 01:30N 48°51' W 123°20'2 4.9
2017-Dec-12 01:00N 48°48' W 123°20'610.9
2017-Dec-12 00:29N 48°43' W 123°24'1 2.4
2017-Dec-11 23:52N 48°42' W 123°24'412.0
2017-Dec-11 23:30N 48°46' W 123°21'3 5.6
2017-Dec-11 23:00N 48°48' W 123°19'611.5
2017-Dec-11 22:30N 48°43' W 123°24'1 0.7
2017-Dec-11 20:32N 48°42' W 123°24'113.0
2017-Dec-11 20:28N 48°43' W 123°24'613.1
2017-Dec-11 20:00N 48°48' W 123°19'3 5.3
2017-Dec-11 19:30N 48°50' W 123°20'1 1.7
2017-Dec-11 19:00N 48°50' W 123°21'713.1
2017-Dec-11 18:30N 48°43' W 123°24'1 2.2
2017-Dec-11 18:00N 48°42' W 123°24'712.9
2017-Dec-11 17:29N 48°48' W 123°19'3 6.1
2017-Dec-11 17:00N 48°45' W 123°20'4 6.1
2017-Dec-11 16:16N 48°41' W 123°24'312.6
2017-Dec-11 16:00N 48°45' W 123°23'612.7
2017-Dec-11 15:30N 48°51' W 123°20'1 2.1
2017-Dec-11 15:01N 48°52' W 123°21'1 2.9
2017-Dec-11 14:30N 48°52' W 123°18'510.8
2017-Dec-11 14:00N 48°47' W 123°21'6 0.7
2017-Dec-11 05:43N 48°42' W 123°24'312.6
2017-Dec-11 05:28N 48°45' W 123°23'4 9.2
2017-Dec-11 05:00N 48°48' W 123°19'4 7.8
2017-Dec-11 04:31N 48°52' W 123°21'2 3.0
2017-Dec-11 04:00N 48°53' W 123°19'2 3.8
2017-Dec-11 03:30N 48°51' W 123°20'510.0
2017-Dec-11 03:00N 48°46' W 123°22'4 5.1
2017-Dec-11 02:09N 48°42' W 123°24'311.4
2017-Dec-11 01:55N 48°44' W 123°23'410.6
2017-Dec-11 01:30N 48°48' W 123°19'2 3.9
2017-Dec-11 01:00N 48°50' W 123°20'2 3.7
2017-Dec-11 00:30N 48°52' W 123°20'1 2.0
2017-Dec-11 00:00N 48°52' W 123°19'1 2.5
2017-Dec-10 23:30N 48°51' W 123°20'510.6
2017-Dec-10 23:00N 48°46' W 123°22'4 2.1
2017-Dec-10 21:08N 48°42' W 123°24'1 7.9
2017-Dec-10 21:00N 48°43' W 123°24'611.4
2017-Dec-10 20:29N 48°48' W 123°19'2 4.4
2017-Dec-10 19:58N 48°50' W 123°20'2 3.4
2017-Dec-10 19:30N 48°52' W 123°21'2 3.4
2017-Dec-10 19:00N 48°52' W 123°19'4 8.9
2017-Dec-10 18:30N 48°48' W 123°20'3 6.9
2017-Dec-10 18:00N 48°45' W 123°22'3 5.3
2017-Dec-10 17:22N 48°42' W 123°24'412.2
2017-Dec-10 17:00N 48°46' W 123°21'2 4.9
2017-Dec-10 16:30N 48°48' W 123°20'3 5.7
2017-Dec-10 16:00N 48°51' W 123°20'2 3.7
2017-Dec-10 15:29N 48°53' W 123°19'4 9.0
2017-Dec-10 15:00N 48°48' W 123°21'612.4
2017-Dec-10 14:30N 48°43' W 123°24'1 0.1
2017-Dec-10 05:47N 48°42' W 123°24'412.9
2017-Dec-10 05:29N 48°45' W 123°22'613.0
2017-Dec-10 05:01N 48°52' W 123°21'1 2.7
2017-Dec-10 04:30N 48°52' W 123°19'1 2.9
2017-Dec-10 04:00N 48°51' W 123°20'3 5.3
2017-Dec-10 03:30N 48°48' W 123°19'610.1
2017-Dec-10 02:57N 48°43' W 123°24'1 2.3
2017-Dec-10 02:19N 48°42' W 123°24'411.7
2017-Dec-10 02:00N 48°45' W 123°22'3 6.5
2017-Dec-10 01:30N 48°48' W 123°19'2 4.6
2017-Dec-10 01:00N 48°49' W 123°16'2 4.1
2017-Dec-10 00:30N 48°48' W 123°13'511.2
2017-Dec-10 00:01N 48°51' W 123°20'2 4.7
2017-Dec-09 23:29N 48°48' W 123°20'2 3.8
2017-Dec-09 23:00N 48°46' W 123°21'5 3.0
2017-Dec-09 21:14N 48°42' W 123°24'312.9
2017-Dec-09 21:01N 48°44' W 123°23'4 8.7
2017-Dec-09 20:30N 48°48' W 123°19'4 8.5
2017-Dec-09 20:00N 48°52' W 123°18'1 2.4
2017-Dec-09 19:30N 48°52' W 123°20'1 1.5
2017-Dec-09 19:00N 48°51' W 123°20'3 5.7
2017-Dec-09 18:30N 48°48' W 123°20'3 5.2
2017-Dec-09 17:59N 48°46' W 123°21'4 5.9
2017-Dec-09 17:14N 48°42' W 123°24'2 8.5
2017-Dec-09 16:58N 48°44' W 123°24'511.4
2017-Dec-09 16:30N 48°48' W 123°19'2 3.5
2017-Dec-09 16:00N 48°50' W 123°20'2 4.1
2017-Dec-09 15:30N 48°52' W 123°20'1 2.6
2017-Dec-09 15:00N 48°53' W 123°19'4 7.3
2017-Dec-09 14:30N 48°49' W 123°21'713.0
2017-Dec-09 14:00N 48°43' W 123°24'1 0.1
2017-Dec-09 06:03N 48°42' W 123°24'111.3
2017-Dec-09 06:00N 48°43' W 123°24'613.1
2017-Dec-09 05:30N 48°48' W 123°19'6 9.9
2017-Dec-09 04:55N 48°43' W 123°24'1 2.8
2017-Dec-09 04:29N 48°42' W 123°24'612.4
2017-Dec-09 03:58N 48°48' W 123°20'0 0.5
2017-Dec-09 03:30N 48°47' W 123°20'5 9.2
2017-Dec-09 03:00N 48°44' W 123°24'2 3.5
2017-Dec-09 02:29N 48°42' W 123°24'613.3
2017-Dec-09 02:00N 48°48' W 123°21'3 5.9
2017-Dec-09 01:30N 48°51' W 123°20'3 5.2
2017-Dec-09 00:59N 48°48' W 123°19'3 5.7
2017-Dec-09 00:30N 48°46' W 123°21'5 4.0
2017-Dec-08 23:21N 48°42' W 123°24'411.7
2017-Dec-08 23:00N 48°45' W 123°22'3 6.3
2017-Dec-08 22:29N 48°48' W 123°19'611.5
2017-Dec-08 21:59N 48°43' W 123°24'1 0.8
2017-Dec-08 20:31N 48°42' W 123°24'0 7.7
2017-Dec-08 20:28N 48°42' W 123°24'613.8
2017-Dec-08 20:00N 48°48' W 123°19'3 6.1
2017-Dec-08 19:30N 48°51' W 123°20'2 3.8
2017-Dec-08 18:59N 48°49' W 123°20'612.1
2017-Dec-08 18:30N 48°43' W 123°24'1 2.3
2017-Dec-08 17:52N 48°42' W 123°24'513.3
2017-Dec-08 17:30N 48°46' W 123°21'2 4.3
2017-Dec-08 17:00N 48°48' W 123°19'610.9
2017-Dec-08 16:29N 48°43' W 123°24'2 3.5
2017-Dec-08 15:57N 48°42' W 123°25'613.2
2017-Dec-08 15:30N 48°47' W 123°21'4 6.9
2017-Dec-08 14:59N 48°51' W 123°20'2 3.6
2017-Dec-08 14:30N 48°52' W 123°18'1 2.2
2017-Dec-08 14:00N 48°51' W 123°20'612.1
2017-Dec-08 13:29N 48°45' W 123°21'4 0.6
2017-Dec-08 06:29N 48°42' W 123°24'613.3
2017-Dec-08 06:00N 48°47' W 123°20'3 6.1
2017-Dec-08 05:30N 48°50' W 123°21'3 5.5
2017-Dec-08 05:00N 48°53' W 123°19'2 4.5
2017-Dec-08 04:30N 48°51' W 123°21'3 6.8
2017-Dec-08 04:00N 48°48' W 123°19'6 9.8
2017-Dec-08 03:27N 48°43' W 123°24'2 2.4
2017-Dec-08 02:46N 48°42' W 123°24'413.3
2017-Dec-08 02:28N 48°45' W 123°22'511.8
2017-Dec-08 02:00N 48°51' W 123°20'0 0.8
2017-Dec-08 01:30N 48°51' W 123°20'2 4.2
2017-Dec-08 01:00N 48°49' W 123°20'612.3
2017-Dec-08 00:30N 48°43' W 123°24'1 1.6
2017-Dec-07 23:49N 48°42' W 123°24'413.3
2017-Dec-07 23:30N 48°46' W 123°22'3 5.8
2017-Dec-07 23:00N 48°48' W 123°19'610.8
2017-Dec-07 22:29N 48°43' W 123°24'1 0.8
2017-Dec-07 20:42N 48°42' W 123°24'313.3
2017-Dec-07 20:30N 48°44' W 123°23'4 9.0
2017-Dec-07 20:00N 48°48' W 123°19'3 5.4
2017-Dec-07 19:30N 48°51' W 123°20'4 8.5
2017-Dec-07 18:59N 48°46' W 123°22'5 6.0
2017-Dec-07 18:11N 48°42' W 123°24'312.8
2017-Dec-07 17:58N 48°44' W 123°23'4 9.3
2017-Dec-07 17:30N 48°48' W 123°19'3 6.4
2017-Dec-07 17:00N 48°45' W 123°20'5 9.3
2017-Dec-07 16:30N 48°41' W 123°25'2 3.4
2017-Dec-07 16:00N 48°43' W 123°24'612.7
2017-Dec-07 15:30N 48°49' W 123°21'2 3.8
2017-Dec-07 15:00N 48°51' W 123°20'2 3.8
2017-Dec-07 14:30N 48°53' W 123°19'1 2.8
2017-Dec-07 14:00N 48°52' W 123°20'612.5
2017-Dec-07 13:30N 48°46' W 123°22'4 8.9
2017-Dec-07 13:00N 48°41' W 123°25'0 0.0
2017-Dec-07 12:30N 48°41' W 123°25'0 0.0
2017-Dec-07 12:00N 48°41' W 123°25'0 0.0
2017-Dec-07 11:30N 48°41' W 123°25'0 0.0
2017-Dec-07 11:00N 48°41' W 123°25'0 0.0
2017-Dec-07 10:30N 48°41' W 123°25'0 0.0
2017-Dec-07 10:00N 48°41' W 123°25'0 0.0
2017-Dec-07 09:30N 48°41' W 123°25'0 0.0
2017-Dec-07 09:00N 48°41' W 123°25'0 0.0
2017-Dec-07 08:30N 48°41' W 123°25'0 0.0
2017-Dec-07 08:00N 48°41' W 123°25'0 0.0
2017-Dec-07 07:30N 48°41' W 123°25'0 0.0
2017-Dec-07 07:01N 48°41' W 123°25'0 0.0
2017-Dec-07 06:30N 48°41' W 123°25'1 2.8
2017-Dec-07 06:00N 48°43' W 123°24'612.2
2017-Dec-07 05:30N 48°48' W 123°19'2 4.2
2017-Dec-07 05:00N 48°50' W 123°21'3 6.2
2017-Dec-07 04:30N 48°53' W 123°19'2 3.9
2017-Dec-07 04:00N 48°51' W 123°21'3 6.5
2017-Dec-07 03:31N 48°48' W 123°19'5 9.6
2017-Dec-07 03:00N 48°44' W 123°23'3 5.8
2017-Dec-07 02:31N 48°41' W 123°25'5 9.3
2017-Dec-07 02:00N 48°46' W 123°22'510.6
2017-Dec-07 01:30N 48°51' W 123°20'3 5.8
2017-Dec-07 01:00N 48°48' W 123°20'5 9.9
2017-Dec-07 00:30N 48°43' W 123°24'2 4.3
2017-Dec-07 00:00N 48°41' W 123°25'510.4
2017-Dec-06 23:30N 48°46' W 123°21'2 4.7
2017-Dec-06 23:00N 48°48' W 123°19'611.0
2017-Dec-06 22:30N 48°43' W 123°24'2 4.3
2017-Dec-06 22:01N 48°41' W 123°25'0 0.0
2017-Dec-06 21:30N 48°41' W 123°25'0 0.0
2017-Dec-06 21:01N 48°41' W 123°25'  
Track history (hours):
 
Tides and Currents Weather Stations Pressure Air Temp Water Temp Dewpoint Dewpoint Depression Visibility Wind Speed Wind Dir Waves Ship Positions

Queen Of Cumberland

Last reported at 2017-Dec-15 06:00 UTC. Time now 2017-Dec-15 06:14 UTC.
Position N 48°45' W 123°22'.

Length 96 m; draft 3.7 m.

Type: Passenger vessel. MMSI: 316001252.

Date/timePositionNaut miles runAvg speedWind from/ knotsBaromVisibWave heightAir tempDewpointWater temp
2017-Dec-15 06:00N 48°45' W 123°22'3 6.8
2017-Dec-15 05:30N 48°48' W 123°20'4 8.6
2017-Dec-15 05:00N 48°52' W 123°19'1 1.8
2017-Dec-15 04:21N 48°51' W 123°19'2 4.8
2017-Dec-15 04:00N 48°50' W 123°20'9 6.1
2017-Dec-15 02:30N 48°41' W 123°25'8 5.1
2017-Dec-15 01:01N 48°49' W 123°21'611.6
2017-Dec-15 00:30N 48°43' W 123°24'2 0.4
2017-Dec-14 18:30N 48°45' W 123°22'4 8.6
2017-Dec-14 18:01N 48°41' W 123°25'4 8.9
2017-Dec-14 17:31N 48°45' W 123°22'3 6.4
2017-Dec-14 17:01N 48°48' W 123°19'611.4
2017-Dec-14 16:31N 48°43' W 123°24'2 3.9
2017-Dec-14 16:00N 48°41' W 123°25'10 9.9
2017-Dec-14 15:00N 48°51' W 123°20'2 3.8
2017-Dec-14 14:30N 48°53' W 123°19'2 3.4
2017-Dec-14 14:00N 48°52' W 123°21'611.5
2017-Dec-14 13:30N 48°46' W 123°22'5 9.8
2017-Dec-14 13:00N 48°41' W 123°25'0 0.0
2017-Dec-14 12:30N 48°41' W 123°25'0 0.0
2017-Dec-14 12:00N 48°41' W 123°25'0 0.0
2017-Dec-14 11:30N 48°41' W 123°25'0 0.0
2017-Dec-14 11:00N 48°41' W 123°25'0 0.0
2017-Dec-14 10:30N 48°41' W 123°25'0 0.0
2017-Dec-14 10:00N 48°41' W 123°25'0 0.0
2017-Dec-14 09:30N 48°41' W 123°25'0 0.0
2017-Dec-14 09:00N 48°41' W 123°25'0 0.0
2017-Dec-14 08:30N 48°41' W 123°25'0 0.0
2017-Dec-14 08:00N 48°41' W 123°25'0 0.0
2017-Dec-14 07:30N 48°41' W 123°25'0 0.0
2017-Dec-14 07:00N 48°41' W 123°25'0 0.0
2017-Dec-14 06:30N 48°41' W 123°25'2 3.6
2017-Dec-14 06:00N 48°43' W 123°24'611.8
2017-Dec-14 05:30N 48°48' W 123°19'3 6.4
2017-Dec-14 05:00N 48°51' W 123°21'2 4.5
2017-Dec-14 04:30N 48°53' W 123°19'2 3.8
2017-Dec-14 04:01N 48°51' W 123°21'3 6.9
2017-Dec-14 03:30N 48°48' W 123°19'510.5
2017-Dec-14 03:00N 48°44' W 123°24'2 4.8
2017-Dec-14 02:31N 48°41' W 123°24'612.1
2017-Dec-14 02:01N 48°47' W 123°21'4 7.5
2017-Dec-14 01:30N 48°51' W 123°20'5 9.2
2017-Dec-14 01:00N 48°46' W 123°21'510.8
2017-Dec-14 00:31N 48°41' W 123°25'1 1.4
2017-Dec-14 00:00N 48°42' W 123°24'611.5
2017-Dec-13 23:30N 48°47' W 123°20'0 0.3
2017-Dec-13 23:00N 48°47' W 123°20'511.1
2017-Dec-13 22:30N 48°42' W 123°24'1 2.2
2017-Dec-13 22:00N 48°41' W 123°25'0 0.0
2017-Dec-13 21:30N 48°41' W 123°25'0 0.0
2017-Dec-13 21:00N 48°41' W 123°25'0 0.0
2017-Dec-13 20:30N 48°41' W 123°25'510.8
2017-Dec-13 20:00N 48°46' W 123°21'2 4.3
2017-Dec-13 19:31N 48°48' W 123°19'3 5.4
2017-Dec-13 19:00N 48°51' W 123°20'510.8
2017-Dec-13 18:30N 48°46' W 123°22'5 9.0
2017-Dec-13 18:00N 48°41' W 123°25'5 9.5
2017-Dec-13 17:30N 48°46' W 123°21'3 5.8
2017-Dec-13 17:01N 48°48' W 123°19'611.1
2017-Dec-13 16:30N 48°43' W 123°24'2 4.3
2017-Dec-13 16:00N 48°41' W 123°25'611.3
2017-Dec-13 15:30N 48°47' W 123°21'4 8.6
2017-Dec-13 15:00N 48°51' W 123°20'2 3.2
2017-Dec-13 14:30N 48°52' W 123°18'1 2.5
2017-Dec-13 14:00N 48°52' W 123°20'611.1
2017-Dec-13 13:30N 48°46' W 123°22'510.3
2017-Dec-13 13:00N 48°41' W 123°25'0 0.0
2017-Dec-13 12:30N 48°41' W 123°25'0 0.0
2017-Dec-13 12:00N 48°41' W 123°25'0 0.0
2017-Dec-13 11:30N 48°41' W 123°25'0 0.0
2017-Dec-13 11:00N 48°41' W 123°25'0 0.0
2017-Dec-13 10:30N 48°41' W 123°25'0 0.0
2017-Dec-13 10:00N 48°41' W 123°25'0 0.0
2017-Dec-13 09:30N 48°41' W 123°25'0 0.0
2017-Dec-13 09:00N 48°41' W 123°25'0 0.0
2017-Dec-13 08:30N 48°41' W 123°25'0 0.0
2017-Dec-13 08:00N 48°41' W 123°25'0 0.0
2017-Dec-13 07:30N 48°41' W 123°25'0 0.0
2017-Dec-13 07:00N 48°41' W 123°25'0 0.0
2017-Dec-13 06:30N 48°41' W 123°25'2 4.0
2017-Dec-13 06:00N 48°43' W 123°24'611.3
2017-Dec-13 05:30N 48°48' W 123°19'4 7.6
2017-Dec-13 05:00N 48°52' W 123°21'2 3.0
2017-Dec-13 04:30N 48°53' W 123°19'3 5.2
2017-Dec-13 04:01N 48°50' W 123°20'2 4.9
2017-Dec-13 03:30N 48°48' W 123°19'611.9
2017-Dec-13 03:00N 48°43' W 123°24'2 3.5
2017-Dec-13 02:30N 48°41' W 123°25'611.1
2017-Dec-13 02:00N 48°47' W 123°21'4 8.6
2017-Dec-13 01:30N 48°51' W 123°20'3 7.1
2017-Dec-13 01:00N 48°47' W 123°21'510.4
2017-Dec-13 00:30N 48°43' W 123°24'1 2.5
2017-Dec-13 00:00N 48°41' W 123°25'611.4
2017-Dec-12 23:30N 48°46' W 123°21'1 1.8
2017-Dec-12 23:00N 48°47' W 123°20'611.4
2017-Dec-12 22:31N 48°42' W 123°24'0 0.2
2017-Dec-12 20:26N 48°42' W 123°24'613.0
2017-Dec-12 19:58N 48°47' W 123°20'2 3.9
2017-Dec-12 19:30N 48°49' W 123°20'2 3.3
2017-Dec-12 19:00N 48°51' W 123°20'510.8
2017-Dec-12 18:30N 48°46' W 123°22'4 5.0
2017-Dec-12 17:44N 48°42' W 123°24'312.6
2017-Dec-12 17:30N 48°45' W 123°23'4 8.3
2017-Dec-12 17:00N 48°48' W 123°19'510.1
2017-Dec-12 16:29N 48°44' W 123°24'2 3.1
2017-Dec-12 15:54N 48°42' W 123°24'512.1
2017-Dec-12 15:29N 48°47' W 123°22'4 8.7
2017-Dec-12 15:00N 48°51' W 123°20'2 3.8
2017-Dec-12 14:30N 48°52' W 123°18'2 3.2
2017-Dec-12 14:00N 48°52' W 123°21'611.5
2017-Dec-12 13:29N 48°46' W 123°22'4 0.5
2017-Dec-12 06:05N 48°42' W 123°24'112.9
2017-Dec-12 06:00N 48°43' W 123°24'612.0
2017-Dec-12 05:30N 48°48' W 123°19'3 5.9
2017-Dec-12 05:00N 48°51' W 123°21'3 5.0
2017-Dec-12 04:30N 48°53' W 123°19'2 4.3
2017-Dec-12 04:00N 48°51' W 123°20'3 5.7
2017-Dec-12 03:30N 48°48' W 123°19'510.9
2017-Dec-12 03:00N 48°43' W 123°24'2 2.8
2017-Dec-12 02:28N 48°42' W 123°24'511.5
2017-Dec-12 02:00N 48°47' W 123°21'4 8.2
2017-Dec-12 01:30N 48°51' W 123°20'2 4.9
2017-Dec-12 01:00N 48°48' W 123°20'610.9
2017-Dec-12 00:29N 48°43' W 123°24'1 2.4
2017-Dec-11 23:52N 48°42' W 123°24'412.0
2017-Dec-11 23:30N 48°46' W 123°21'3 5.6
2017-Dec-11 23:00N 48°48' W 123°19'611.5
2017-Dec-11 22:30N 48°43' W 123°24'1 0.7
2017-Dec-11 20:32N 48°42' W 123°24'113.0
2017-Dec-11 20:28N 48°43' W 123°24'613.1
2017-Dec-11 20:00N 48°48' W 123°19'3 5.3
2017-Dec-11 19:30N 48°50' W 123°20'1 1.7
2017-Dec-11 19:00N 48°50' W 123°21'713.1
2017-Dec-11 18:30N 48°43' W 123°24'1 2.2
2017-Dec-11 18:00N 48°42' W 123°24'712.9
2017-Dec-11 17:29N 48°48' W 123°19'3 6.1
2017-Dec-11 17:00N 48°45' W 123°20'4 6.1
2017-Dec-11 16:16N 48°41' W 123°24'312.6
2017-Dec-11 16:00N 48°45' W 123°23'612.7
2017-Dec-11 15:30N 48°51' W 123°20'1 2.1
2017-Dec-11 15:01N 48°52' W 123°21'1 2.9
2017-Dec-11 14:30N 48°52' W 123°18'510.8
2017-Dec-11 14:00N 48°47' W 123°21'6 0.7
2017-Dec-11 05:43N 48°42' W 123°24'312.6
2017-Dec-11 05:28N 48°45' W 123°23'4 9.2
2017-Dec-11 05:00N 48°48' W 123°19'4 7.8
2017-Dec-11 04:31N 48°52' W 123°21'2 3.0
2017-Dec-11 04:00N 48°53' W 123°19'2 3.8
2017-Dec-11 03:30N 48°51' W 123°20'510.0
2017-Dec-11 03:00N 48°46' W 123°22'4 5.1
2017-Dec-11 02:09N 48°42' W 123°24'311.4
2017-Dec-11 01:55N 48°44' W 123°23'410.6
2017-Dec-11 01:30N 48°48' W 123°19'2 3.9
2017-Dec-11 01:00N 48°50' W 123°20'2 3.7
2017-Dec-11 00:30N 48°52' W 123°20'1 2.0
2017-Dec-11 00:00N 48°52' W 123°19'1 2.5
2017-Dec-10 23:30N 48°51' W 123°20'510.6
2017-Dec-10 23:00N 48°46' W 123°22'4 2.1
2017-Dec-10 21:08N 48°42' W 123°24'1 7.9
2017-Dec-10 21:00N 48°43' W 123°24'611.4
2017-Dec-10 20:29N 48°48' W 123°19'2 4.4
2017-Dec-10 19:58N 48°50' W 123°20'2 3.4
2017-Dec-10 19:30N 48°52' W 123°21'2 3.4
2017-Dec-10 19:00N 48°52' W 123°19'4 8.9
2017-Dec-10 18:30N 48°48' W 123°20'3 6.9
2017-Dec-10 18:00N 48°45' W 123°22'3 5.3
2017-Dec-10 17:22N 48°42' W 123°24'412.2
2017-Dec-10 17:00N 48°46' W 123°21'2 4.9
2017-Dec-10 16:30N 48°48' W 123°20'3 5.7
2017-Dec-10 16:00N 48°51' W 123°20'2 3.7
2017-Dec-10 15:29N 48°53' W 123°19'4 9.0
2017-Dec-10 15:00N 48°48' W 123°21'612.4
2017-Dec-10 14:30N 48°43' W 123°24'1 0.1
2017-Dec-10 05:47N 48°42' W 123°24'412.9
2017-Dec-10 05:29N 48°45' W 123°22'613.0
2017-Dec-10 05:01N 48°52' W 123°21'1 2.7
2017-Dec-10 04:30N 48°52' W 123°19'1 2.9
2017-Dec-10 04:00N 48°51' W 123°20'3 5.3
2017-Dec-10 03:30N 48°48' W 123°19'610.1
2017-Dec-10 02:57N 48°43' W 123°24'1 2.3
2017-Dec-10 02:19N 48°42' W 123°24'411.7
2017-Dec-10 02:00N 48°45' W 123°22'3 6.5
2017-Dec-10 01:30N 48°48' W 123°19'2 4.6
2017-Dec-10 01:00N 48°49' W 123°16'2 4.1
2017-Dec-10 00:30N 48°48' W 123°13'511.2
2017-Dec-10 00:01N 48°51' W 123°20'2 4.7
2017-Dec-09 23:29N 48°48' W 123°20'2 3.8
2017-Dec-09 23:00N 48°46' W 123°21'5 3.0
2017-Dec-09 21:14N 48°42' W 123°24'312.9
2017-Dec-09 21:01N 48°44' W 123°23'4 8.7
2017-Dec-09 20:30N 48°48' W 123°19'4 8.5
2017-Dec-09 20:00N 48°52' W 123°18'1 2.4
2017-Dec-09 19:30N 48°52' W 123°20'1 1.5
2017-Dec-09 19:00N 48°51' W 123°20'3 5.7
2017-Dec-09 18:30N 48°48' W 123°20'3 5.2
2017-Dec-09 17:59N 48°46' W 123°21'4 5.9
2017-Dec-09 17:14N 48°42' W 123°24'2 8.5
2017-Dec-09 16:58N 48°44' W 123°24'511.4
2017-Dec-09 16:30N 48°48' W 123°19'2 3.5
2017-Dec-09 16:00N 48°50' W 123°20'2 4.1
2017-Dec-09 15:30N 48°52' W 123°20'1 2.6
2017-Dec-09 15:00N 48°53' W 123°19'4 7.3
2017-Dec-09 14:30N 48°49' W 123°21'713.0
2017-Dec-09 14:00N 48°43' W 123°24'1 0.1
2017-Dec-09 06:03N 48°42' W 123°24'111.3
2017-Dec-09 06:00N 48°43' W 123°24'613.1
2017-Dec-09 05:30N 48°48' W 123°19'6 9.9
2017-Dec-09 04:55N 48°43' W 123°24'1 2.8
2017-Dec-09 04:29N 48°42' W 123°24'612.4
2017-Dec-09 03:58N 48°48' W 123°20'0 0.5
2017-Dec-09 03:30N 48°47' W 123°20'5 9.2
2017-Dec-09 03:00N 48°44' W 123°24'2 3.5
2017-Dec-09 02:29N 48°42' W 123°24'613.3
2017-Dec-09 02:00N 48°48' W 123°21'3 5.9
2017-Dec-09 01:30N 48°51' W 123°20'3 5.2
2017-Dec-09 00:59N 48°48' W 123°19'3 5.7
2017-Dec-09 00:30N 48°46' W 123°21'5 4.0
2017-Dec-08 23:21N 48°42' W 123°24'411.7
2017-Dec-08 23:00N 48°45' W 123°22'3 6.3
2017-Dec-08 22:29N 48°48' W 123°19'611.5
2017-Dec-08 21:59N 48°43' W 123°24'1 0.8
2017-Dec-08 20:31N 48°42' W 123°24'0 7.7
2017-Dec-08 20:28N 48°42' W 123°24'613.8
2017-Dec-08 20:00N 48°48' W 123°19'3 6.1
2017-Dec-08 19:30N 48°51' W 123°20'2 3.8
2017-Dec-08 18:59N 48°49' W 123°20'612.1
2017-Dec-08 18:30N 48°43' W 123°24'1 2.3
2017-Dec-08 17:52N 48°42' W 123°24'513.3
2017-Dec-08 17:30N 48°46' W 123°21'2 4.3
2017-Dec-08 17:00N 48°48' W 123°19'610.9
2017-Dec-08 16:29N 48°43' W 123°24'2 3.5
2017-Dec-08 15:57N 48°42' W 123°25'613.2
2017-Dec-08 15:30N 48°47' W 123°21'4 6.9
2017-Dec-08 14:59N 48°51' W 123°20'2 3.6
2017-Dec-08 14:30N 48°52' W 123°18'1 2.2
2017-Dec-08 14:00N 48°51' W 123°20'612.1
2017-Dec-08 13:29N 48°45' W 123°21'4 0.6
2017-Dec-08 06:29N 48°42' W 123°24'613.3
2017-Dec-08 06:00N 48°47' W 123°20'3 6.1
2017-Dec-08 05:30N 48°50' W 123°21'3 5.5
2017-Dec-08 05:00N 48°53' W 123°19'2 4.5
2017-Dec-08 04:30N 48°51' W 123°21'3 6.8
2017-Dec-08 04:00N 48°48' W 123°19'6 9.8
2017-Dec-08 03:27N 48°43' W 123°24'2 2.4
2017-Dec-08 02:46N 48°42' W 123°24'413.3
2017-Dec-08 02:28N 48°45' W 123°22'511.8
2017-Dec-08 02:00N 48°51' W 123°20'0 0.8
2017-Dec-08 01:30N 48°51' W 123°20'2 4.2
2017-Dec-08 01:00N 48°49' W 123°20'612.3
2017-Dec-08 00:30N 48°43' W 123°24'1 1.6
2017-Dec-07 23:49N 48°42' W 123°24'413.3
2017-Dec-07 23:30N 48°46' W 123°22'3 5.8
2017-Dec-07 23:00N 48°48' W 123°19'610.8
2017-Dec-07 22:29N 48°43' W 123°24'1 0.8
2017-Dec-07 20:42N 48°42' W 123°24'313.3
2017-Dec-07 20:30N 48°44' W 123°23'4 9.0
2017-Dec-07 20:00N 48°48' W 123°19'3 5.4
2017-Dec-07 19:30N 48°51' W 123°20'4 8.5
2017-Dec-07 18:59N 48°46' W 123°22'5 6.0
2017-Dec-07 18:11N 48°42' W 123°24'312.8
2017-Dec-07 17:58N 48°44' W 123°23'4 9.3
2017-Dec-07 17:30N 48°48' W 123°19'3 6.4
2017-Dec-07 17:00N 48°45' W 123°20'5 9.3
2017-Dec-07 16:30N 48°41' W 123°25'2 3.4
2017-Dec-07 16:00N 48°43' W 123°24'612.7
2017-Dec-07 15:30N 48°49' W 123°21'2 3.8
2017-Dec-07 15:00N 48°51' W 123°20'2 3.8
2017-Dec-07 14:30N 48°53' W 123°19'1 2.8
2017-Dec-07 14:00N 48°52' W 123°20'612.5
2017-Dec-07 13:30N 48°46' W 123°22'4 8.9
2017-Dec-07 13:00N 48°41' W 123°25'0 0.0
2017-Dec-07 12:30N 48°41' W 123°25'0 0.0
2017-Dec-07 12:00N 48°41' W 123°25'0 0.0
2017-Dec-07 11:30N 48°41' W 123°25'0 0.0
2017-Dec-07 11:00N 48°41' W 123°25'0 0.0
2017-Dec-07 10:30N 48°41' W 123°25'0 0.0
2017-Dec-07 10:00N 48°41' W 123°25'0 0.0
2017-Dec-07 09:30N 48°41' W 123°25'0 0.0
2017-Dec-07 09:00N 48°41' W 123°25'0 0.0
2017-Dec-07 08:30N 48°41' W 123°25'0 0.0
2017-Dec-07 08:00N 48°41' W 123°25'0 0.0
2017-Dec-07 07:30N 48°41' W 123°25'0 0.0
2017-Dec-07 07:01N 48°41' W 123°25'0 0.0
2017-Dec-07 06:30N 48°41' W 123°25'1 2.8
2017-Dec-07 06:00N 48°43' W 123°24'612.2
2017-Dec-07 05:30N 48°48' W 123°19'2 4.2
2017-Dec-07 05:00N 48°50' W 123°21'3 6.2
2017-Dec-07 04:30N 48°53' W 123°19'2 3.9
2017-Dec-07 04:00N 48°51' W 123°21'3 6.5
2017-Dec-07 03:31N 48°48' W 123°19'5 9.6
2017-Dec-07 03:00N 48°44' W 123°23'3 5.8
2017-Dec-07 02:31N 48°41' W 123°25'5 9.3
2017-Dec-07 02:00N 48°46' W 123°22'510.6
2017-Dec-07 01:30N 48°51' W 123°20'3 5.8
2017-Dec-07 01:00N 48°48' W 123°20'5 9.9
2017-Dec-07 00:30N 48°43' W 123°24'2 4.3
2017-Dec-07 00:00N 48°41' W 123°25'510.4
2017-Dec-06 23:30N 48°46' W 123°21'2 4.7
2017-Dec-06 23:00N 48°48' W 123°19'611.0
2017-Dec-06 22:30N 48°43' W 123°24'2 4.3
2017-Dec-06 22:01N 48°41' W 123°25'0 0.0
2017-Dec-06 21:30N 48°41' W 123°25'0 0.0
2017-Dec-06 21:01N 48°41' W 123°25'  

Dump ship's entire track history